Terminal Aerodrome Forecast
Issued by NWS

Home | Current Version | Previous Version | Text Only | Print | Product List | Glossary On
Versions: 1 2 3 4 5 6 7 8 9 10 11 12 13 14 15 16 17 18 19 20 21 22 23 24 25
000
FTUS44 KOUN 221740
TAFPNC
TAF
KPNC 221740Z 2218/2318 29010KT P6SM FEW005 OVC010
     FM222100 33015KT P6SM FEW100
     FM230000 VRB05KT P6SM SCT120 OVC250
     FM231200 31010KT P6SM BKN100 OVC250
     FM231700 33010G15KT P6SM SCT200=

USA.gov is the U.S. government's official web portal to all federal, state and local government web resources and services.